Time;durP1;ratioP1;P1;durP2;ratioP2;P2;SDS_P1;SDS_P2;PMS_P1;PMS_P2;Temp;Humidity;BMP_temperature;BMP_pressure;BME280_temperature;BME280_humidity;BME280_pressure;Samples;Min_cycle;Max_cycle;Signal;HPM_P1;HPM_P2
2022/02/09 00:02:17;;;;;;;9.35;3.62;;;;;;;-1.26;91.35;147361.16;1751246;80;21447;-61
2022/02/09 00:04:55;;;;;;;7.95;3.58;;;;;;;-1.21;91.44;147374.05;1750136;80;21566;-60
2022/02/09 00:07:11;;;;;;;7.83;3.72;;;;;;;-1.17;91.48;147384.31;1751377;80;21068;-60
2022/02/09 00:09:36;;;;;;;11.88;3.87;;;;;;;-1.14;91.49;147389.45;1752109;81;21625;-60
2022/02/09 00:12:09;;;;;;;12.80;3.52;;;;;;;-1.16;91.59;147386.89;1755030;80;21042;-60
2022/02/09 00:14:56;;;;;;;12.90;4.00;;;;;;;-1.14;91.80;147389.45;1767025;80;21011;-61
2022/02/09 01:57:11;;;;;;;14.10;4.83;;;;;;;-1.12;95.39;147394.59;1779337;79;21072;-61
2022/02/09 01:59:39;;;;;;;11.57;4.72;;;;;;;-1.18;95.31;147381.75;1765736;79;21123;-61
2022/02/09 02:02:06;;;;;;;14.25;5.40;;;;;;;-1.23;95.31;147368.86;1773830;79;20963;-60
2022/02/09 02:04:33;;;;;;;14.58;5.30;;;;;;;-1.25;95.40;147363.72;1769498;79;21389;-61
2022/02/09 02:07:05;;;;;;;18.02;6.30;;;;;;;-1.25;95.51;147363.72;1778619;79;21502;-61
2022/02/09 02:09:34;;;;;;;16.65;5.55;;;;;;;-1.24;95.70;147366.28;1774619;79;21156;-60
2022/02/09 02:12:09;;;;;;;15.95;5.17;;;;;;;-1.22;95.69;147371.42;1769843;80;21076;-61
2022/02/09 02:14:40;;;;;;;16.25;5.75;;;;;;;-1.21;95.64;147374.05;1758552;79;21494;-60
2022/02/09 02:17:10;;;;;;;13.85;5.65;;;;;;;-1.21;95.61;147374.05;1768887;79;21032;-61
2022/02/09 02:19:40;;;;;;;17.07;5.33;;;;;;;-1.21;95.51;147372.73;1759799;80;21108;-61
2022/02/09 02:27:15;;;;;;;13.32;5.60;;;;;;;-1.34;95.35;147340.59;1766566;80;21067;-61
2022/02/09 02:56:52;;;;;;;24.23;7.03;;;;;;;-1.57;96.08;147282.73;1756525;80;21150;-61
2022/02/09 03:12:46;;;;;;;22.95;8.28;;;;;;;-1.16;98.00;147386.89;1758990;80;21145;-61
2022/02/09 03:15:28;;;;;;;23.73;7.05;;;;;;;-1.12;98.02;147394.59;1754138;80;21148;-62
2022/02/09 03:17:48;;;;;;;16.57;7.30;;;;;;;-1.10;98.02;147399.73;1765840;79;21058;-61
2022/02/09 03:22:57;;;;;;;18.20;7.40;;;;;;;-1.04;98.17;147415.16;1763560;80;21200;-61
2022/02/09 03:47:03;;;;;;;17.42;6.72;;;;;;;-0.50;98.45;147548.94;1768366;79;21014;-61
2022/02/09 03:49:30;;;;;;;17.73;6.83;;;;;;;-0.45;98.19;147563.06;1764096;79;21573;-62
2022/02/09 03:52:01;;;;;;;16.77;7.42;;;;;;;-0.41;97.95;147572.08;1756250;80;21071;-62
2022/02/09 03:54:53;;;;;;;18.55;7.17;;;;;;;-0.37;97.74;147581.09;1773006;80;21685;-63
2022/02/09 03:57:22;;;;;;;18.40;7.37;;;;;;;-0.36;97.51;147584.94;1761894;79;21050;-61
2022/02/09 03:59:34;;;;;;;16.97;6.15;;;;;;;-0.35;97.33;147587.50;1750765;80;21006;-60
2022/02/09 04:02:02;;;;;;;15.85;7.65;;;;;;;-0.33;97.14;147591.38;1774457;80;21063;-60
2022/02/09 04:04:29;;;;;;;12.93;6.42;;;;;;;-0.33;97.03;147592.69;1734064;80;21064;-60
2022/02/09 04:06:57;;;;;;;13.80;6.62;;;;;;;-0.32;96.93;147595.27;1778446;80;21178;-61
2022/02/09 04:09:29;;;;;;;15.30;7.05;;;;;;;-0.31;96.89;147596.53;1775869;80;21067;-61
2022/02/09 04:12:15;;;;;;;14.25;6.78;;;;;;;-0.30;96.86;147599.09;1770659;79;21113;-60
2022/02/09 04:14:53;;;;;;;22.48;7.62;;;;;;;-0.27;96.86;147606.81;1766949;80;21076;-62
2022/02/09 04:20:00;;;;;;;19.55;6.78;;;;;;;-0.25;96.73;147610.69;1750408;80;21135;-61
2022/02/09 04:36:14;;;;;;;14.50;6.50;;;;;;;-0.07;96.36;147657.02;1758133;80;21000;-60
2022/02/09 04:38:51;;;;;;;13.15;6.28;;;;;;;0.01;96.44;147675.02;1750878;80;21060;-61
2022/02/09 04:51:58;;;;;;;20.08;6.50;;;;;;;0.13;95.51;147705.94;1768887;80;21039;-61
2022/02/09 04:57:00;;;;;;;16.60;7.35;;;;;;;0.18;95.40;147718.80;1758121;80;21399;-60
2022/02/09 05:04:45;;;;;;;13.80;5.67;;;;;;;0.26;95.29;147738.11;1765905;80;21045;-61
2022/02/09 05:18:18;;;;;;;13.98;5.55;;;;;;;0.56;94.95;147814.08;1749225;79;21551;-61
2022/02/09 05:26:08;;;;;;;18.37;6.75;;;;;;;0.72;94.29;147852.67;1751735;80;21125;-59
2022/02/09 05:28:30;;;;;;;16.32;6.85;;;;;;;0.76;94.48;147862.97;1763846;80;20990;-60
2022/02/09 05:30:56;;;;;;;18.10;6.62;;;;;;;0.80;94.57;147873.31;1795886;78;21621;-60
2022/02/09 05:33:23;;;;;;;14.20;6.67;;;;;;;0.82;94.69;147877.14;1758457;80;21601;-60
2022/02/09 05:35:50;;;;;;;18.32;6.87;;;;;;;0.81;94.80;147874.56;1763025;80;21110;-60
2022/02/09 05:38:18;;;;;;;23.20;7.78;;;;;;;0.79;94.87;147870.73;1761530;80;21124;-61
2022/02/09 05:40:46;;;;;;;20.70;7.50;;;;;;;0.79;95.10;147870.73;1751779;80;21049;-60
2022/02/09 05:43:14;;;;;;;23.80;7.90;;;;;;;0.81;95.44;147875.88;1747456;81;21259;-60
2022/02/09 05:51:07;;;;;;;18.55;7.70;;;;;;;0.89;95.60;147893.89;1752364;80;21230;-61
2022/02/09 05:53:55;;;;;;;22.95;7.87;;;;;;;0.94;95.60;147906.77;1755750;80;21053;-61
2022/02/09 05:56:21;;;;;;;22.30;9.20;;;;;;;0.94;95.55;147908.06;1739334;81;21104;-60
2022/02/09 05:58:46;;;;;;;17.32;8.15;;;;;;;0.99;95.75;147920.94;1762277;80;21110;-61
2022/02/09 06:01:06;;;;;;;22.58;8.13;;;;;;;1.07;95.83;147940.27;1757012;80;21071;-62
2022/02/09 06:03:33;;;;;;;19.48;7.90;;;;;;;1.11;95.73;147950.56;1748578;80;21972;-62
2022/02/09 06:06:00;;;;;;;23.12;7.80;;;;;;;1.16;95.76;147962.17;1744499;80;21094;-60
2022/02/09 06:08:26;;;;;;;15.53;7.67;;;;;;;1.19;95.97;147968.59;1746712;80;21023;-61
2022/02/09 06:11:09;;;;;;;19.73;7.67;;;;;;;1.21;96.22;147975.05;1746432;80;21177;-60
2022/02/09 06:14:21;;;;;;;13.53;7.20;;;;;;;1.24;96.65;147982.77;1744686;80;21023;-60
2022/02/09 06:21:24;;;;;;;17.15;7.60;;;;;;;1.34;97.45;148007.25;1799396;78;21073;-61
2022/02/09 06:23:52;;;;;;;14.80;7.35;;;;;;;1.37;97.68;148013.72;1787306;78;20975;-61
2022/02/09 06:26:19;;;;;;;19.90;8.58;;;;;;;1.40;97.89;148022.69;1806411;78;21116;-60
2022/02/09 06:28:47;;;;;;;19.90;8.20;;;;;;;1.47;98.32;148038.19;1809924;78;22329;-60
2022/02/09 06:31:14;;;;;;;18.62;8.00;;;;;;;1.55;98.71;148058.78;1802793;78;21108;-60
2022/02/09 06:33:41;;;;;;;18.20;7.58;;;;;;;1.65;98.86;148084.55;1787675;78;21063;-61
2022/02/09 06:36:10;;;;;;;16.05;7.60;;;;;;;1.73;98.91;148102.63;1813320;78;21024;-61
2022/02/09 06:38:40;;;;;;;15.70;7.37;;;;;;;1.82;98.91;148125.80;1791344;78;21045;-62
2022/02/09 06:41:08;;;;;;;19.77;7.75;;;;;;;1.89;98.91;148143.88;1803584;78;23178;-62
2022/02/09 06:43:36;;;;;;;19.02;7.60;;;;;;;1.94;98.87;148156.75;1798413;78;21410;-60
2022/02/09 06:46:04;;;;;;;21.07;7.10;;;;;;;2.02;98.73;148174.78;1785064;78;21512;-60
2022/02/09 06:48:32;;;;;;;15.18;7.35;;;;;;;2.06;98.66;148186.41;1801358;78;21072;-61
2022/02/09 06:51:08;;;;;;;23.02;8.75;;;;;;;2.15;98.52;148208.33;1792010;78;21067;-61
2022/02/09 06:53:33;;;;;;;22.62;9.80;;;;;;;2.21;98.28;148223.78;1772647;78;21574;-61
2022/02/09 06:55:59;;;;;;;16.25;8.33;;;;;;;2.23;97.93;148228.94;1797454;78;20995;-59
2022/02/09 07:01:03;;;;;;;20.62;8.35;;;;;;;2.29;97.87;148243.13;1789050;78;21075;-60
2022/02/09 07:03:32;;;;;;;19.80;8.75;;;;;;;2.34;97.68;148254.75;1812139;78;21057;-62
2022/02/09 07:06:01;;;;;;;22.73;9.30;;;;;;;2.38;97.48;148265.06;1788329;78;21362;-61
2022/02/09 07:08:29;;;;;;;26.37;9.78;;;;;;;2.41;97.24;148272.78;1784428;78;21068;-60
2022/02/09 07:10:56;;;;;;;26.23;9.55;;;;;;;2.46;97.00;148284.41;1782431;78;21134;-61
2022/02/09 07:13:23;;;;;;;26.00;9.88;;;;;;;2.51;96.86;148297.30;1782099;78;21095;-61
2022/02/09 07:15:54;;;;;;;21.25;9.28;;;;;;;2.55;96.60;148308.91;1787423;78;21061;-61
2022/02/09 07:18:20;;;;;;;24.10;9.90;;;;;;;2.58;96.25;148315.33;1785480;78;21406;-61
2022/02/09 07:23:23;;;;;;;26.97;10.32;;;;;;;2.63;95.75;148326.95;1788203;78;20999;-60
2022/02/09 07:25:59;;;;;;;21.15;8.83;;;;;;;2.65;95.56;148333.42;1790149;78;21127;-61
2022/02/09 07:28:18;;;;;;;16.50;8.65;;;;;;;2.74;95.35;148354.03;1785533;78;21039;-61
2022/02/09 07:30:45;;;;;;;20.48;8.48;;;;;;;2.83;94.93;148378.55;1783724;78;21123;-61
2022/02/09 07:33:12;;;;;;;22.70;8.93;;;;;;;2.91;94.59;148396.59;1790560;78;21384;-60
2022/02/09 07:35:39;;;;;;;20.75;8.50;;;;;;;3.00;94.22;148419.84;1791793;78;21712;-60
2022/02/09 07:38:06;;;;;;;17.82;7.92;;;;;;;3.08;93.86;148439.16;1786832;78;21540;-60
2022/02/09 07:40:34;;;;;;;18.42;7.97;;;;;;;3.14;93.53;148455.94;1784447;78;21415;-62
2022/02/09 07:43:09;;;;;;;18.98;7.37;;;;;;;3.23;93.14;148476.61;1792692;78;21249;-60
2022/02/09 07:45:57;;;;;;;20.02;7.75;;;;;;;3.30;92.64;148494.67;1782753;78;21454;-60
2022/02/09 07:49:00;;;;;;;15.48;7.28;;;;;;;3.35;92.23;148507.56;1790774;78;21035;-62
2022/02/09 07:50:42;;;;;;;15.60;6.92;;;;;;;3.44;91.89;148529.50;1758587;78;21110;-61
2022/02/09 07:53:11;;;;;;;15.30;7.33;;;;;;;3.50;91.41;148544.97;1783042;78;21055;-61
2022/02/09 07:55:36;;;;;;;24.40;7.65;;;;;;;3.56;91.08;148559.19;1756397;79;21148;-61
2022/02/09 07:58:03;;;;;;;15.20;7.17;;;;;;;3.60;90.66;148569.50;1779637;78;21064;-61
2022/02/09 08:00:31;;;;;;;15.05;6.87;;;;;;;3.57;90.23;148561.77;1777228;78;21074;-61
2022/02/09 08:02:58;;;;;;;15.83;7.15;;;;;;;3.58;90.34;148564.34;1786200;78;21165;-60
2022/02/09 08:05:24;;;;;;;14.85;7.12;;;;;;;3.55;89.87;148556.61;1747583;80;21044;-61
2022/02/09 08:07:53;;;;;;;16.37;6.83;;;;;;;3.53;90.47;148551.45;1746698;80;21831;-61
2022/02/09 08:10:27;;;;;;;17.45;6.90;;;;;;;3.53;90.47;148551.45;1749386;80;21078;-61
2022/02/09 08:24:38;;;;;;;16.75;8.60;;;;;;;3.06;93.99;148434.00;1790200;78;21061;-63
2022/02/09 08:29:17;;;;;;;15.28;7.83;;;;;;;3.04;94.93;148430.16;1771599;79;21317;-61
2022/02/09 08:31:48;;;;;;;11.68;6.12;;;;;;;3.08;95.77;148440.47;1774021;78;21017;-61
2022/02/09 08:34:12;;;;;;;13.00;7.50;;;;;;;3.18;96.46;148463.67;1777543;78;21265;-60
2022/02/09 08:36:41;;;;;;;16.40;7.03;;;;;;;3.22;96.46;148474.03;1785397;78;21059;-61
2022/02/09 08:39:07;;;;;;;17.35;7.97;;;;;;;3.26;96.52;148484.34;1778159;78;21052;-62
2022/02/09 08:41:35;;;;;;;18.12;7.35;;;;;;;3.26;96.68;148484.34;1785356;78;21162;-61
2022/02/09 08:44:03;;;;;;;15.15;6.30;;;;;;;3.27;96.79;148488.19;1781091;78;21054;-61
2022/02/09 08:46:30;;;;;;;12.15;6.10;;;;;;;3.33;96.78;148502.41;1778123;78;21099;-61
2022/02/09 08:48:57;;;;;;;14.73;6.37;;;;;;;3.38;97.08;148515.30;1776057;78;21488;-61
2022/02/09 08:51:26;;;;;;;16.57;8.50;;;;;;;3.38;97.08;148515.30;1782596;78;21091;-62
2022/02/09 08:53:52;;;;;;;14.58;6.17;;;;;;;3.43;97.19;148528.23;1785923;78;21161;-62
2022/02/09 08:56:20;;;;;;;38.08;20.15;;;;;;;3.44;96.95;148530.81;1773784;78;21088;-61
2022/02/09 08:58:47;;;;;;;25.12;12.15;;;;;;;3.49;97.13;148541.12;1775076;78;21135;-61
2022/02/09 09:01:25;;;;;;;60.75;28.70;;;;;;;3.59;96.97;148566.92;1779298;78;21616;-63
2022/02/09 09:03:51;;;;;;;85.22;41.65;;;;;;;3.71;96.70;148596.61;1771410;78;21004;-61
2022/02/09 09:06:19;;;;;;;131.85;62.27;;;;;;;3.82;96.26;148623.72;1774208;78;21067;-61
2022/02/09 09:09:03;;;;;;;140.28;66.50;;;;;;;3.90;95.80;148644.41;1774911;78;21354;-62
2022/02/09 09:11:58;;;;;;;134.97;66.57;;;;;;;3.96;95.49;148659.89;1775369;78;21616;-63
2022/02/09 09:17:23;;;;;;;109.57;49.70;;;;;;;4.04;94.18;148679.27;1787565;78;21068;-60
2022/02/09 09:58:25;;;;;;;82.70;44.60;;;;;;;5.10;90.48;148942.80;1750713;79;21085;-64
2022/02/09 10:34:29;;;;;;;107.45;50.12;;;;;;;5.69;85.02;149091.44;1765161;79;21696;-63
2022/02/09 10:37:06;;;;;;;75.75;37.33;;;;;;;5.73;85.06;149101.77;1765039;79;22211;-63
2022/02/09 10:39:45;;;;;;;28.85;13.88;;;;;;;5.78;84.48;149113.42;1763070;79;21095;-64
2022/02/09 10:44:46;;;;;;;62.27;31.42;;;;;;;5.79;83.77;149114.69;1763627;79;21239;-62
2022/02/09 10:47:36;;;;;;;48.35;22.58;;;;;;;5.79;84.74;149116.00;1723101;81;21784;-64
2022/02/09 10:50:15;;;;;;;112.17;45.75;;;;;;;5.89;84.81;149140.58;1763929;79;21072;-62
2022/02/09 10:52:49;;;;;;;72.03;36.10;;;;;;;5.92;83.81;149148.33;1762119;79;21553;-63
2022/02/09 10:55:29;;;;;;;117.50;55.30;;;;;;;5.95;83.16;149156.08;1763414;79;21123;-61
2022/02/09 10:57:56;;;;;;;147.55;69.03;;;;;;;5.94;82.37;149153.50;1757797;79;21560;-63
2022/02/09 11:00:24;;;;;;;49.95;25.30;;;;;;;5.96;82.81;149158.66;1763179;79;21075;-65
2022/02/09 11:02:51;;;;;;;87.37;43.85;;;;;;;6.01;83.39;149171.63;1766204;79;21825;-61
2022/02/09 11:05:21;;;;;;;117.17;53.38;;;;;;;6.05;82.57;149180.70;1766708;79;22471;-63
2022/02/09 11:07:52;;;;;;;131.03;64.30;;;;;;;6.04;82.39;149176.80;1760271;79;21061;-65
2022/02/09 11:10:19;;;;;;;78.52;36.00;;;;;;;6.00;82.40;149167.73;1760898;79;21091;-60
2022/02/09 11:12:46;;;;;;;100.42;45.30;;;;;;;6.00;83.68;149167.73;1764630;79;21200;-60
2022/02/09 11:15:22;;;;;;;94.32;46.48;;;;;;;6.04;83.20;149176.80;1759395;79;21072;-61
2022/02/09 11:17:49;;;;;;;146.87;68.42;;;;;;;6.10;82.46;149192.36;1754617;79;21098;-62
2022/02/09 11:20:27;;;;;;;89.45;42.90;;;;;;;6.13;81.22;149200.11;1749931;80;21486;-62
2022/02/09 11:22:50;;;;;;;112.70;55.52;;;;;;;6.12;79.93;149198.80;1749888;80;21102;-62
2022/02/09 11:25:26;;;;;;;27.35;14.03;;;;;;;6.15;80.80;149205.28;1740543;81;21123;-61
2022/02/09 11:27:56;;;;;;;52.60;24.90;;;;;;;6.21;80.88;149220.78;1739258;81;21066;-61
2022/02/09 11:30:28;;;;;;;127.82;57.85;;;;;;;6.23;80.19;149225.95;1743455;81;21287;-61
2022/02/09 11:33:24;;;;;;;72.67;34.88;;;;;;;6.23;80.29;149224.69;1737196;81;21140;-62
2022/02/09 11:39:04;;;;;;;199.95;94.55;;;;;;;6.34;80.66;149253.13;1669148;82;22902;-63
2022/02/09 11:41:38;;;;;;;25.80;12.35;;;;;;;6.43;78.52;149275.11;1749961;80;21126;-63
2022/02/09 11:44:10;;;;;;;22.85;11.40;;;;;;;6.44;78.45;149277.69;1754048;79;21099;-63
2022/02/09 11:47:23;;;;;;;21.00;11.33;;;;;;;6.44;79.04;149277.69;1774582;78;21475;-64
2022/02/09 11:51:55;;;;;;;127.82;65.12;;;;;;;6.62;78.00;149321.69;1787668;78;21118;-63
2022/02/09 12:11:38;;;;;;;15.78;7.37;;;;;;;7.10;64.54;149443.33;1784262;78;21128;-64
2022/02/09 12:17:14;;;;;;;55.50;26.37;;;;;;;7.13;66.22;149451.09;1776955;78;21096;-61
2022/02/09 12:19:32;;;;;;;36.42;17.27;;;;;;;7.15;66.65;149456.25;1761991;78;21740;-62
2022/02/09 12:22:10;;;;;;;103.42;53.13;;;;;;;7.19;66.44;149465.34;1756444;80;21075;-63
2022/02/09 12:24:33;;;;;;;110.22;53.95;;;;;;;7.24;67.21;149477.00;1759751;80;21079;-62
2022/02/09 12:27:16;;;;;;;59.73;29.90;;;;;;;7.26;67.60;149482.17;1765131;80;21078;-61
2022/02/09 12:29:51;;;;;;;35.17;14.35;;;;;;;7.28;68.09;149487.34;1763131;80;21072;-62
2022/02/09 12:32:27;;;;;;;;;;;;;;;7.30;67.66;149492.53;1765074;80;21744;-63
2022/02/09 12:35:09;;;;;;;73.22;34.35;;;;;;;7.28;66.78;149487.34;1755684;79;20546;-63
2022/02/09 12:37:41;;;;;;;43.10;18.45;;;;;;;7.25;67.22;149479.59;1756539;80;21178;-62
2022/02/09 12:40:11;;;;;;;59.83;29.75;;;;;;;7.25;67.49;149479.59;1761956;79;21190;-61
2022/02/09 12:42:42;;;;;;;62.93;32.83;;;;;;;7.26;67.46;149483.44;1724999;81;21084;-63
2022/02/09 12:45:14;;;;;;;48.70;25.00;;;;;;;7.29;68.22;149489.94;1749878;80;21112;-62
2022/02/09 12:48:03;;;;;;;46.75;23.27;;;;;;;7.27;67.50;149486.03;1758834;80;21068;-62
2022/02/09 12:50:40;;;;;;;134.18;63.52;;;;;;;7.26;68.02;149483.44;1755634;79;21426;-62
2022/02/09 12:53:04;;;;;;;78.95;40.12;;;;;;;7.25;66.83;149480.86;1754189;80;21052;-62
2022/02/09 12:55:33;;;;;;;150.03;81.12;;;;;;;7.26;66.69;149482.17;1759250;80;21134;-63
2022/02/09 12:58:09;;;;;;;22.45;11.38;;;;;;;7.27;66.12;149484.77;1759576;79;21366;-64
2022/02/09 13:00:44;;;;;;;47.27;22.80;;;;;;;7.25;63.71;149479.59;1766682;79;21035;-63
2022/02/09 13:03:18;;;;;;;46.00;24.07;;;;;;;7.24;64.07;149477.00;1762007;79;21067;-65
2022/02/09 13:06:01;;;;;;;53.05;26.97;;;;;;;7.23;63.42;149474.42;1756357;79;21107;-62
2022/02/09 13:08:30;;;;;;;13.38;5.60;;;;;;;7.22;63.60;149471.83;1752531;80;21143;-62
2022/02/09 13:11:27;;;;;;;24.70;11.22;;;;;;;7.21;63.94;149470.52;1762129;80;21039;-64
2022/02/09 13:13:57;;;;;;;11.15;3.30;;;;;;;7.17;64.85;149461.44;1758454;79;21072;-63
2022/02/09 14:12:37;;;;;;;103.83;51.00;;;;;;;6.39;66.88;149266.05;1738745;78;21238;-60
2022/02/09 14:53:27;;;;;;;38.70;19.30;;;;;;;6.06;69.46;149181.97;1668499;81;21068;-67
2022/02/09 14:55:56;;;;;;;18.57;6.97;;;;;;;6.05;69.81;149179.39;1760894;79;21048;-61
2022/02/09 14:58:24;;;;;;;10.03;4.55;;;;;;;6.04;70.20;149178.12;1725428;79;21256;-60
2022/02/09 15:01:13;;;;;;;11.43;4.97;;;;;;;6.06;70.34;149181.97;1765534;79;21317;-67
2022/02/09 15:11:49;;;;;;;15.68;5.33;;;;;;;5.92;73.18;149148.33;1768256;79;21017;-61
2022/02/09 15:16:46;;;;;;;11.08;3.75;;;;;;;5.87;74.33;149135.41;1762880;79;21076;-67
2022/02/09 15:24:17;;;;;;;11.93;4.30;;;;;;;5.83;75.00;149126.34;1719502;80;21134;-61
2022/02/09 15:26:46;;;;;;;35.40;15.10;;;;;;;5.80;75.23;149118.59;1756576;79;22291;-68
2022/02/09 15:29:16;;;;;;;16.55;6.78;;;;;;;5.78;75.39;149113.42;1723669;80;22153;-68
2022/02/09 15:31:53;;;;;;;17.90;7.50;;;;;;;5.77;75.56;149110.84;1756260;80;21071;-68
2022/02/09 15:34:26;;;;;;;13.03;5.58;;;;;;;5.77;75.70;149109.52;1762030;79;21081;-67
2022/02/09 15:39:21;;;;;;;7.45;3.05;;;;;;;5.73;75.77;149100.45;1754889;79;21983;-67
2022/02/09 15:58:58;;;;;;;44.65;17.48;;;;;;;5.69;74.18;149091.44;1756026;79;21088;-67
2022/02/09 16:09:43;;;;;;;92.05;42.38;;;;;;;5.66;72.73;149083.69;1758597;79;21714;-63
2022/02/09 16:44:37;;;;;;;212.57;84.92;;;;;;;5.58;70.83;149062.97;1708182;79;21063;-61
2022/02/09 16:46:59;;;;;;;86.40;39.67;;;;;;;5.57;71.42;149060.39;1768018;78;21141;-67
2022/02/09 16:52:20;;;;;;;15.32;5.87;;;;;;;5.53;72.21;149050.06;1758528;80;21597;-67
2022/02/09 17:11:11;;;;;;;132.20;59.70;;;;;;;5.34;73.81;149003.52;1752367;81;21053;-66
2022/02/09 17:21:23;;;;;;;217.05;104.32;;;;;;;5.24;73.99;148977.69;1755082;79;21113;-67
2022/02/09 17:23:52;;;;;;;213.80;98.75;;;;;;;5.24;74.20;148977.69;1739896;80;21049;-67
2022/02/09 17:26:19;;;;;;;238.18;110.92;;;;;;;5.22;74.31;148972.52;1754040;79;21493;-67
2022/02/09 17:28:46;;;;;;;143.05;63.33;;;;;;;5.21;74.48;148971.20;1763657;80;20974;-67
2022/02/09 17:36:27;;;;;;;92.60;44.45;;;;;;;5.20;75.19;148967.34;1719604;82;21004;-61
2022/02/09 17:57:41;;;;;;;285.70;128.62;;;;;;;5.08;75.52;148937.58;1784719;78;22064;-61
2022/02/09 18:00:17;;;;;;;115.37;50.25;;;;;;;5.07;74.97;148936.31;1755074;79;21065;-68
2022/02/09 18:02:53;;;;;;;51.20;23.12;;;;;;;5.05;74.05;148931.16;1772612;79;21579;-68
2022/02/09 18:05:46;;;;;;;72.22;28.62;;;;;;;5.03;71.81;148925.98;1782184;78;21726;-67
2022/02/09 18:08:02;;;;;;;99.10;44.05;;;;;;;5.05;71.42;148931.16;1773498;80;21013;-67
2022/02/09 18:10:43;;;;;;;71.35;32.03;;;;;;;5.07;71.22;148936.31;1780741;79;21099;-60
2022/02/09 18:29:26;;;;;;;98.65;41.15;;;;;;;5.04;72.77;148928.56;1776419;80;20457;-67
2022/02/09 18:32:50;;;;;;;34.98;16.32;;;;;;;5.04;72.82;148928.56;1780022;80;21121;-61
2022/02/09 19:01:33;;;;;;;15.23;5.05;;;;;;;4.98;74.76;148913.06;1775257;80;20993;-68
2022/02/09 19:03:52;;;;;;;13.60;5.22;;;;;;;4.96;75.05;148909.17;1740585;80;21468;-62
2022/02/09 19:06:29;;;;;;;19.40;5.15;;;;;;;4.95;75.32;148905.28;1752810;80;21054;-60
2022/02/09 19:14:14;;;;;;;20.85;5.08;;;;;;;4.94;75.52;148902.69;1754070;80;20990;-61
2022/02/09 19:16:56;;;;;;;15.03;4.37;;;;;;;4.88;75.67;148889.78;1748074;80;22385;-66
2022/02/09 19:32:54;;;;;;;14.85;4.40;;;;;;;4.55;75.70;148807.13;1757273;79;21123;-61
2022/02/09 19:40:52;;;;;;;;;;;;;;;4.48;75.97;148789.02;1658677;84;21055;-60
2022/02/09 19:45:57;;;;;;;12.75;4.10;;;;;;;4.50;75.14;148792.91;1785845;79;21049;-60
2022/02/09 19:48:27;;;;;;;12.63;4.15;;;;;;;4.41;74.51;148770.94;1760838;79;21079;-60
2022/02/09 19:51:11;;;;;;;12.50;4.28;;;;;;;4.32;73.98;148747.72;1759855;79;21101;-66
2022/02/09 19:53:39;;;;;;;15.90;4.15;;;;;;;4.23;73.90;148727.03;1749524;79;21552;-66
2022/02/09 19:56:04;;;;;;;;;;;;;;;4.14;73.95;148703.80;1769210;79;21040;-67
2022/02/09 19:58:38;;;;;;;11.12;4.15;;;;;;;4.07;73.96;148685.69;1763290;79;20577;-65
2022/02/09 20:00:57;;;;;;;14.03;4.90;;;;;;;4.01;74.12;148672.78;1751917;79;21052;-67
2022/02/09 20:03:22;;;;;;;9.85;3.87;;;;;;;3.99;74.33;148666.36;1769755;79;21815;-67
2022/02/09 20:05:49;;;;;;;11.43;3.77;;;;;;;3.96;74.48;148659.89;1757695;79;21530;-61
2022/02/09 20:08:17;;;;;;;12.95;4.35;;;;;;;3.95;74.52;148657.31;1755633;79;21494;-61
2022/02/09 20:10:44;;;;;;;10.32;4.12;;;;;;;3.92;74.53;148649.56;1755278;79;21111;-61
2022/02/09 20:13:11;;;;;;;19.62;4.55;;;;;;;3.85;74.38;148631.45;1758805;79;21105;-67
2022/02/09 20:15:38;;;;;;;14.00;4.30;;;;;;;3.75;74.49;148605.66;1764561;79;21569;-66
2022/02/09 20:18:05;;;;;;;14.70;4.50;;;;;;;3.65;74.68;148582.45;1755309;79;21053;-61
2022/02/09 20:20:35;;;;;;;14.60;4.60;;;;;;;3.56;74.94;148559.19;1757993;79;21607;-62
2022/02/09 20:23:02;;;;;;;15.50;4.20;;;;;;;3.50;75.19;148543.72;1778185;80;21479;-61
2022/02/09 20:25:29;;;;;;;16.67;4.72;;;;;;;3.40;75.31;148520.45;1781765;80;21876;-61
2022/02/09 20:27:56;;;;;;;13.30;4.17;;;;;;;3.34;75.48;148504.97;1780878;80;21348;-61
2022/02/09 20:30:28;;;;;;;16.05;5.30;;;;;;;3.28;75.67;148490.78;1781099;80;21095;-60
2022/02/09 20:33:01;;;;;;;16.27;4.20;;;;;;;3.24;76.02;148479.19;1778821;80;21041;-66
2022/02/09 20:35:21;;;;;;;28.00;10.40;;;;;;;3.20;76.26;148470.14;1777818;80;21566;-66
2022/02/09 20:37:51;;;;;;;24.10;9.20;;;;;;;3.19;76.46;148466.25;1780641;80;20870;-65
2022/02/09 20:40:34;;;;;;;46.13;14.80;;;;;;;3.15;76.68;148458.52;1782869;80;21124;-60
2022/02/09 20:42:57;;;;;;;48.08;19.73;;;;;;;3.11;76.92;148448.20;1776451;80;21024;-61
2022/02/09 20:45:39;;;;;;;46.77;20.92;;;;;;;3.06;77.02;148434.00;1778006;80;21044;-66
2022/02/09 20:48:13;;;;;;;112.17;50.58;;;;;;;3.02;77.11;148425.00;1780676;80;20948;-67
2022/02/09 20:50:36;;;;;;;158.00;68.50;;;;;;;2.96;77.26;148410.80;1779183;80;21049;-66
2022/02/09 20:53:02;;;;;;;127.87;56.88;;;;;;;2.91;77.42;148397.91;1779866;80;21137;-65
2022/02/09 20:55:30;;;;;;;50.95;20.77;;;;;;;2.88;77.60;148388.86;1780071;80;21086;-66
2022/02/09 20:57:57;;;;;;;103.15;42.20;;;;;;;2.84;77.92;148379.81;1781299;80;21024;-65
2022/02/09 21:00:36;;;;;;;45.25;15.45;;;;;;;2.80;78.35;148370.81;1780159;80;21047;-66
2022/02/09 21:05:33;;;;;;;24.43;6.00;;;;;;;2.75;78.96;148357.88;1782705;80;21714;-65
2022/02/09 21:08:06;;;;;;;12.33;4.72;;;;;;;2.73;79.14;148352.72;1780352;80;21091;-61
2022/02/09 21:10:37;;;;;;;13.55;4.55;;;;;;;2.70;79.18;148346.31;1779299;79;21056;-61
2022/02/09 21:12:57;;;;;;;33.65;15.15;;;;;;;2.70;79.00;148345.00;1775490;80;21057;-60
2022/02/09 21:20:50;;;;;;;24.23;8.98;;;;;;;2.58;79.57;148316.64;1779999;80;21008;-60
2022/02/09 21:26:20;;;;;;;9.58;4.10;;;;;;;2.55;79.71;148308.91;1783207;80;21107;-67
2022/02/09 21:31:44;;;;;;;14.15;4.30;;;;;;;2.51;79.85;148298.56;1782191;80;21118;-61
2022/02/09 21:44:51;;;;;;;74.27;31.37;;;;;;;2.48;80.19;148290.83;1775831;80;22024;-65
2022/02/09 21:49:19;;;;;;;51.05;20.75;;;;;;;2.50;80.57;148295.97;1776264;80;21308;-65
2022/02/09 21:58:00;;;;;;;82.82;34.78;;;;;;;2.48;80.81;148290.83;1726070;82;21121;-68
2022/02/09 22:00:47;;;;;;;45.55;20.48;;;;;;;2.47;81.06;148288.25;1683900;83;21116;-66
2022/02/09 22:06:22;;;;;;;42.53;17.45;;;;;;;2.41;81.22;148272.78;1781909;80;21061;-66
2022/02/09 22:19:09;;;;;;;10.13;3.92;;;;;;;2.35;81.46;148257.33;1778150;80;20276;-66
2022/02/09 22:22:17;;;;;;;;;;;;;;;2.26;81.67;148236.66;1778601;79;21509;-67
2022/02/09 22:56:40;;;;;;;24.05;8.70;;;;;;;2.16;82.82;148210.91;1744875;80;21577;-66
2022/02/09 22:59:15;;;;;;;20.35;7.20;;;;;;;2.11;82.74;148199.28;1780904;79;20994;-65
2022/02/09 23:01:47;;;;;;;10.95;5.58;;;;;;;2.12;83.00;148200.59;1779692;80;21076;-65
2022/02/09 23:06:56;;;;;;;21.12;6.03;;;;;;;2.12;82.64;148200.59;1783487;80;21469;-65
2022/02/09 23:09:34;;;;;;;23.32;6.42;;;;;;;2.06;82.57;148186.41;1777119;80;21485;-59
2022/02/09 23:12:03;;;;;;;22.60;5.90;;;;;;;1.98;82.65;148167.06;1779261;79;21031;-60
2022/02/09 23:22:55;;;;;;;14.13;4.08;;;;;;;1.79;84.46;148119.39;1773477;80;21087;-65
2022/02/09 23:25:13;;;;;;;34.23;8.83;;;;;;;1.86;84.56;148137.41;1773739;80;21084;-65
2022/02/09 23:28:16;;;;;;;30.88;6.10;;;;;;;1.90;84.48;148146.45;1772063;80;21044;-59
